Time;durP1;ratioP1;P1;durP2;ratioP2;P2;SDS_P1;SDS_P2;PMS_P1;PMS_P2;Temp;Humidity;BMP_temperature;BMP_pressure;BME280_temperature;BME280_humidity;BME280_pressure;Samples;Min_cycle;Max_cycle;Signal;HPM_P1;HPM_P2
2021/01/14 00:01:38;;;;;;;9.57;1.60;;;2.80;99.90;;;;;;5014342;28;20952;-85
2021/01/14 00:04:05;;;;;;;9.87;1.83;;;2.70;99.90;;;;;;5013691;28;20548;-84
2021/01/14 00:06:31;;;;;;;5.63;1.93;;;2.80;99.90;;;;;;5013993;28;20494;-85
2021/01/14 00:08:58;;;;;;;5.33;1.60;;;2.70;99.90;;;;;;5014134;28;20546;-86
2021/01/14 00:11:25;;;;;;;3.60;1.20;;;2.60;99.90;;;;;;5014179;28;20462;-85
2021/01/14 00:13:51;;;;;;;7.00;2.43;;;2.50;99.90;;;;;;5014457;28;20454;-84
2021/01/14 00:16:17;;;;;;;11.87;2.03;;;2.50;99.90;;;;;;5013129;28;20490;-85
2021/01/14 00:18:44;;;;;;;7.50;1.50;;;2.30;99.90;;;;;;5014378;28;20464;-84
2021/01/14 00:21:10;;;;;;;9.93;1.70;;;2.30;99.90;;;;;;5013876;28;20486;-85
2021/01/14 00:23:36;;;;;;;12.73;1.37;;;2.20;99.90;;;;;;5014356;28;20449;-85
2021/01/14 00:26:04;;;;;;;5.97;1.30;;;2.20;99.90;;;;;;5013779;28;20549;-85
2021/01/14 00:28:30;;;;;;;3.50;1.40;;;2.20;99.90;;;;;;5014261;28;20451;-85
2021/01/14 00:30:57;;;;;;;7.60;1.80;;;2.30;99.90;;;;;;5013915;28;20464;-84
2021/01/14 00:33:23;;;;;;;8.37;2.17;;;2.30;99.90;;;;;;5013713;28;20485;-85
2021/01/14 00:35:50;;;;;;;7.17;1.67;;;2.40;99.90;;;;;;5013756;28;20490;-85
2021/01/14 00:38:16;;;;;;;14.43;2.17;;;2.30;99.90;;;;;;5013558;28;20458;-85
2021/01/14 00:40:42;;;;;;;11.73;1.93;;;2.20;99.90;;;;;;5011767;28;20527;-84
2021/01/14 00:43:09;;;;;;;5.07;1.23;;;2.20;99.90;;;;;;4994785;28;20236;-85
2021/01/14 00:45:36;;;;;;;8.25;1.35;;;2.10;99.90;;;;;;4994316;28;20596;-84
2021/01/14 00:48:04;;;;;;;4.45;1.60;;;2.00;99.90;;;;;;4989794;28;20208;-86
2021/01/14 00:50:30;;;;;;;12.63;1.83;;;1.90;99.90;;;;;;5012402;28;20342;-85
2021/01/14 00:52:59;;;;;;;5.67;1.30;;;1.90;99.90;;;;;;5013744;28;20916;-85
2021/01/14 00:55:25;;;;;;;6.30;2.00;;;1.80;99.90;;;;;;5014129;28;20500;-84
2021/01/14 00:57:53;;;;;;;5.60;1.70;;;1.60;99.90;;;;;;5014261;28;20445;-85
2021/01/14 01:00:22;;;;;;;9.40;2.10;;;1.60;99.90;;;;;;5014008;28;20464;-85
2021/01/14 01:02:51;;;;;;;6.95;1.52;;;1.60;99.90;;;;;;5014242;28;20209;-85
2021/01/14 01:05:18;;;;;;;5.82;1.55;;;1.60;99.90;;;;;;5012889;28;20296;-85
2021/01/14 01:07:49;;;;;;;4.07;1.48;;;1.50;99.90;;;;;;5013812;28;20209;-85
2021/01/14 01:10:16;;;;;;;5.10;1.45;;;1.50;99.90;;;;;;5014951;28;20213;-84
2021/01/14 01:12:42;;;;;;;3.78;1.20;;;1.50;99.90;;;;;;5014794;28;20297;-84
2021/01/14 01:15:10;;;;;;;4.70;1.60;;;1.50;99.90;;;;;;5016347;28;20266;-84
2021/01/14 01:17:37;;;;;;;7.13;1.33;;;1.40;99.90;;;;;;5017188;28;20205;-85
2021/01/14 01:20:04;;;;;;;12.47;3.10;;;1.40;99.90;;;;;;5015019;28;20199;-85
2021/01/14 01:22:31;;;;;;;5.50;1.30;;;1.50;99.90;;;;;;5013391;28;20457;-84
2021/01/14 01:24:57;;;;;;;5.22;1.33;;;1.50;99.90;;;;;;5014364;28;20234;-85
2021/01/14 01:27:24;;;;;;;10.52;1.75;;;1.50;99.90;;;;;;5013963;28;20550;-85
2021/01/14 01:29:50;;;;;;;8.60;1.95;;;1.50;99.90;;;;;;5016914;28;20212;-85
2021/01/14 01:32:16;;;;;;;5.80;1.23;;;1.60;99.90;;;;;;5016599;28;20643;-85
2021/01/14 01:34:44;;;;;;;3.75;1.48;;;1.60;99.90;;;;;;5017255;28;20607;-84
2021/01/14 01:37:10;;;;;;;4.07;1.35;;;1.70;99.90;;;;;;5016914;28;20313;-85
2021/01/14 01:39:36;;;;;;;5.20;1.25;;;1.80;99.90;;;;;;5014481;28;20213;-84
2021/01/14 01:42:04;;;;;;;6.85;1.35;;;1.80;99.90;;;;;;4998369;28;20326;-86
2021/01/14 01:44:30;;;;;;;5.20;1.13;;;1.90;99.90;;;;;;4997799;28;20293;-85
2021/01/14 01:47:03;;;;;;;3.53;1.63;;;2.00;99.90;;;;;;5014647;28;20872;-85
2021/01/14 01:49:30;;;;;;;4.60;1.33;;;2.00;99.90;;;;;;5017640;28;20442;-85
2021/01/14 01:51:57;;;;;;;3.33;1.10;;;2.10;99.90;;;;;;5017139;28;20294;-85
2021/01/14 01:54:23;;;;;;;9.20;1.80;;;2.10;99.90;;;;;;5016705;28;20206;-85
2021/01/14 01:56:50;;;;;;;4.77;1.40;;;2.10;99.90;;;;;;5016667;28;20957;-85
2021/01/14 01:59:18;;;;;;;5.40;1.50;;;2.00;99.90;;;;;;5016506;28;20526;-85
2021/01/14 02:01:44;;;;;;;5.40;1.50;;;2.10;99.90;;;;;;5017322;28;20469;-85
2021/01/14 02:04:11;;;;;;;4.30;1.10;;;2.10;99.90;;;;;;5016698;28;20234;-85
2021/01/14 02:06:46;;;;;;;6.00;1.43;;;2.10;99.90;;;;;;5017375;28;20545;-85
2021/01/14 02:09:15;;;;;;;4.97;1.20;;;2.10;99.90;;;;;;5016584;28;20529;-85
2021/01/14 02:11:43;;;;;;;4.00;1.38;;;2.10;99.90;;;;;;5017150;28;20456;-85
2021/01/14 02:14:16;;;;;;;6.77;1.10;;;2.10;99.90;;;;;;5016644;28;20297;-85
2021/01/14 02:16:44;;;;;;;5.97;1.40;;;2.10;99.90;;;;;;5017261;28;20556;-85
2021/01/14 02:19:17;;;;;;;9.15;1.55;;;2.20;99.90;;;;;;5016531;28;20428;-85
2021/01/14 02:21:47;;;;;;;4.67;1.70;;;2.10;99.90;;;;;;5017182;28;20198;-85
2021/01/14 02:24:23;;;;;;;6.60;1.77;;;2.20;99.90;;;;;;5016521;28;20492;-85
2021/01/14 02:26:51;;;;;;;4.87;1.30;;;2.20;99.90;;;;;;5017033;28;20530;-85
2021/01/14 02:29:18;;;;;;;4.53;1.47;;;2.20;99.90;;;;;;5015622;28;20489;-85
2021/01/14 02:31:44;;;;;;;3.00;1.13;;;2.20;99.90;;;;;;5016496;28;20544;-85
2021/01/14 02:34:11;;;;;;;4.80;1.40;;;2.20;99.90;;;;;;5016214;28;20545;-85
2021/01/14 02:36:37;;;;;;;5.43;1.60;;;2.30;99.90;;;;;;5016449;28;20577;-85
2021/01/14 02:39:04;;;;;;;9.87;1.50;;;2.30;99.90;;;;;;5013292;28;20458;-87
2021/01/14 02:41:31;;;;;;;3.80;1.20;;;2.20;99.90;;;;;;5006054;28;20764;-85
2021/01/14 02:43:58;;;;;;;6.90;1.70;;;2.20;99.90;;;;;;5003236;28;20529;-85
2021/01/14 02:46:25;;;;;;;9.30;1.67;;;2.20;99.90;;;;;;5015971;28;20461;-85
2021/01/14 02:49:04;;;;;;;6.60;1.67;;;2.20;99.90;;;;;;5012248;28;20458;-85
2021/01/14 02:51:39;;;;;;;7.33;1.63;;;2.30;99.90;;;;;;4997551;28;20434;-85
2021/01/14 02:54:06;;;;;;;4.50;1.10;;;2.30;99.90;;;;;;4996438;28;20538;-86
2021/01/14 02:56:34;;;;;;;15.90;2.10;;;2.30;99.90;;;;;;4999478;28;20337;-85
2021/01/14 02:59:02;;;;;;;3.00;1.00;;;2.30;99.90;;;;;;5015985;28;20445;-85
2021/01/14 03:01:29;;;;;;;5.63;1.47;;;2.30;99.90;;;;;;5015055;28;20452;-85
2021/01/14 03:03:55;;;;;;;7.95;1.40;;;2.30;99.90;;;;;;5016054;28;20457;-85
2021/01/14 03:06:22;;;;;;;4.37;1.40;;;2.30;99.90;;;;;;5015507;28;20207;-85
2021/01/14 03:08:48;;;;;;;5.00;1.27;;;2.20;99.90;;;;;;5015790;28;20468;-85
2021/01/14 03:11:16;;;;;;;4.00;1.87;;;2.30;99.90;;;;;;5015062;28;20539;-85
2021/01/14 03:13:43;;;;;;;4.60;1.30;;;2.20;99.90;;;;;;5015838;28;20454;-85
2021/01/14 03:16:10;;;;;;;3.10;1.07;;;2.20;99.90;;;;;;5015310;28;20828;-85
2021/01/14 03:18:36;;;;;;;7.03;1.37;;;2.20;99.90;;;;;;5015519;28;20923;-85
2021/01/14 03:21:03;;;;;;;6.43;2.17;;;2.20;99.90;;;;;;5016103;28;20846;-85
2021/01/14 03:23:30;;;;;;;8.80;1.98;;;2.10;99.90;;;;;;5014920;28;20457;-85
2021/01/14 03:25:56;;;;;;;6.03;1.43;;;2.10;99.90;;;;;;5015671;28;20215;-85
2021/01/14 03:28:22;;;;;;;5.00;1.27;;;2.00;99.90;;;;;;5015688;28;20528;-85
2021/01/14 03:30:49;;;;;;;5.20;1.40;;;2.10;99.90;;;;;;5016678;28;20532;-85
2021/01/14 03:33:16;;;;;;;6.30;1.70;;;2.00;99.90;;;;;;5015349;28;20452;-86
2021/01/14 03:35:42;;;;;;;3.53;1.03;;;2.00;99.90;;;;;;5015968;28;20227;-85
2021/01/14 03:38:09;;;;;;;2.83;1.30;;;2.00;99.90;;;;;;5014895;28;20449;-85
2021/01/14 03:40:35;;;;;;;4.30;1.42;;;2.10;99.90;;;;;;5011237;28;20477;-85
2021/01/14 03:43:01;;;;;;;9.67;1.83;;;2.10;99.90;;;;;;5001137;28;20317;-85
2021/01/14 03:45:28;;;;;;;3.80;1.13;;;2.10;99.90;;;;;;5016700;28;20465;-85
2021/01/14 03:47:54;;;;;;;8.82;1.40;;;2.20;99.90;;;;;;5003281;28;20545;-86
2021/01/14 03:50:21;;;;;;;6.60;1.93;;;2.20;99.90;;;;;;4994903;28;20294;-86
2021/01/14 03:52:47;;;;;;;9.10;1.60;;;2.20;99.90;;;;;;4995857;28;20783;-85
2021/01/14 03:55:16;;;;;;;8.13;1.13;;;2.20;99.90;;;;;;5004218;28;20465;-86
2021/01/14 03:57:42;;;;;;;10.37;1.67;;;2.20;99.90;;;;;;5015192;28;20461;-85
2021/01/14 04:00:10;;;;;;;4.10;1.50;;;2.20;99.90;;;;;;5014810;28;20585;-86
2021/01/14 04:02:36;;;;;;;5.97;1.80;;;2.20;99.90;;;;;;5015250;28;20481;-85
2021/01/14 04:05:04;;;;;;;7.37;1.70;;;2.20;99.90;;;;;;5015370;28;20497;-85
2021/01/14 04:07:31;;;;;;;6.83;1.27;;;2.20;99.90;;;;;;5014685;28;20473;-85
2021/01/14 04:09:58;;;;;;;7.03;1.47;;;2.20;99.90;;;;;;5014840;28;20496;-86
2021/01/14 04:12:28;;;;;;;4.50;1.50;;;2.20;99.90;;;;;;5014310;28;20805;-85
2021/01/14 04:14:54;;;;;;;10.03;1.30;;;2.20;99.90;;;;;;5014639;28;20217;-85
2021/01/14 04:17:20;;;;;;;6.00;1.60;;;2.20;99.90;;;;;;5014150;28;20489;-85
2021/01/14 04:19:47;;;;;;;4.13;1.63;;;2.10;99.90;;;;;;5014523;28;20449;-85
2021/01/14 04:22:14;;;;;;;13.70;2.37;;;2.10;99.90;;;;;;5013950;28;20459;-85
2021/01/14 04:24:41;;;;;;;4.00;1.40;;;2.10;99.90;;;;;;5014494;28;20446;-86
2021/01/14 04:27:09;;;;;;;5.20;2.00;;;2.10;99.90;;;;;;5014371;28;20918;-85
2021/01/14 04:29:35;;;;;;;3.67;1.47;;;2.10;99.90;;;;;;5014522;28;20236;-85
2021/01/14 04:32:02;;;;;;;4.37;1.50;;;2.00;99.90;;;;;;5014293;28;20939;-85
2021/01/14 04:34:28;;;;;;;3.53;1.80;;;2.00;99.90;;;;;;5014303;28;20458;-85
2021/01/14 04:36:58;;;;;;;8.57;2.07;;;2.00;99.90;;;;;;5014027;28;20500;-85
2021/01/14 04:39:24;;;;;;;5.07;2.03;;;2.10;99.90;;;;;;5011774;28;20540;-86
2021/01/14 04:41:56;;;;;;;6.40;2.00;;;2.10;99.90;;;;;;5003453;28;20457;-85
2021/01/14 04:44:23;;;;;;;6.13;1.70;;;2.10;99.90;;;;;;5013402;28;20542;-85
2021/01/14 04:46:50;;;;;;;3.55;1.42;;;2.10;99.90;;;;;;5026610;28;20453;-85
2021/01/14 04:49:17;;;;;;;6.20;2.30;;;2.10;99.90;;;;;;5022962;28;20713;-85
2021/01/14 04:51:46;;;;;;;5.57;1.80;;;2.10;99.90;;;;;;5011403;28;20570;-85
2021/01/14 04:54:14;;;;;;;7.95;2.25;;;2.00;99.90;;;;;;4994973;28;20464;-85
2021/01/14 04:56:45;;;;;;;6.30;1.67;;;2.10;99.90;;;;;;4995120;28;20250;-85
2021/01/14 04:59:17;;;;;;;4.53;1.30;;;2.10;99.90;;;;;;4994019;28;20638;-86
2021/01/14 05:01:48;;;;;;;13.27;1.95;;;2.00;99.90;;;;;;5005823;28;20516;-85
2021/01/14 05:04:21;;;;;;;3.30;1.47;;;2.10;99.90;;;;;;5018162;28;20201;-85
2021/01/14 05:06:57;;;;;;;6.60;2.25;;;2.10;99.90;;;;;;5017854;28;20507;-85
2021/01/14 05:09:25;;;;;;;4.83;1.43;;;2.10;99.90;;;;;;5017527;28;20194;-85
2021/01/14 05:11:57;;;;;;;3.17;1.35;;;2.10;99.90;;;;;;5018209;28;20568;-85
2021/01/14 05:14:24;;;;;;;5.22;1.25;;;2.10;99.90;;;;;;5017637;28;20569;-85
2021/01/14 05:16:51;;;;;;;3.63;1.38;;;2.00;99.90;;;;;;5017874;28;20230;-85
2021/01/14 05:19:18;;;;;;;11.70;1.97;;;2.00;99.90;;;;;;5017508;28;20548;-86
2021/01/14 05:21:45;;;;;;;10.93;5.30;;;2.00;99.90;;;;;;5017887;28;21000;-86
2021/01/14 05:24:16;;;;;;;20.83;10.37;;;2.10;99.90;;;;;;5017191;28;20249;-87
2021/01/14 05:26:43;;;;;;;13.67;6.87;;;2.00;99.90;;;;;;5017454;28;20456;-86
2021/01/14 05:29:14;;;;;;;16.70;6.63;;;2.00;99.90;;;;;;5018122;28;20454;-86
2021/01/14 05:31:41;;;;;;;8.83;4.83;;;2.00;99.90;;;;;;5018203;28;20932;-86
2021/01/14 05:34:08;;;;;;;8.40;3.57;;;1.90;99.90;;;;;;5017351;28;20926;-85
2021/01/14 05:36:57;;;;;;;10.10;3.90;;;2.00;99.90;;;;;;5017087;28;20553;-86
2021/01/14 05:39:24;;;;;;;9.37;4.00;;;2.00;99.90;;;;;;5015634;28;20521;-85
2021/01/14 05:41:51;;;;;;;6.05;2.97;;;1.90;99.90;;;;;;5010642;28;20488;-86
2021/01/14 05:44:18;;;;;;;6.73;3.10;;;1.90;99.90;;;;;;5016718;28;20203;-86
2021/01/14 05:46:45;;;;;;;4.38;2.20;;;1.90;99.90;;;;;;4998872;28;20519;-85
2021/01/14 05:49:13;;;;;;;4.60;2.50;;;2.00;99.90;;;;;;5016596;28;20214;-85
2021/01/14 05:51:40;;;;;;;6.80;2.03;;;2.00;99.90;;;;;;5017384;28;20543;-85
2021/01/14 05:54:07;;;;;;;4.63;2.33;;;2.00;99.90;;;;;;5020301;28;20289;-86
2021/01/14 05:56:47;;;;;;;8.18;2.22;;;2.00;99.90;;;;;;5025070;28;20615;-85
2021/01/14 05:59:15;;;;;;;5.93;1.83;;;2.00;99.90;;;;;;5036154;28;20222;-87
2021/01/14 06:01:54;;;;;;;5.60;2.20;;;1.90;99.90;;;;;;5037098;28;20453;-85
2021/01/14 06:04:22;;;;;;;9.02;2.30;;;2.00;99.90;;;;;;5036442;28;20210;-86
2021/01/14 06:06:50;;;;;;;4.83;2.87;;;1.90;99.90;;;;;;5038469;28;20221;-86
2021/01/14 06:09:18;;;;;;;6.97;1.63;;;1.90;99.90;;;;;;5023423;28;20517;-86
2021/01/14 06:11:45;;;;;;;5.80;2.50;;;1.90;99.90;;;;;;5037391;28;20523;-86
2021/01/14 06:14:27;;;;;;;5.07;1.77;;;1.90;99.90;;;;;;5037366;28;20556;-85
2021/01/14 06:16:55;;;;;;;5.63;1.85;;;2.00;99.90;;;;;;5026062;28;20488;-86
2021/01/14 06:19:25;;;;;;;5.30;1.47;;;1.90;99.90;;;;;;5019392;28;20211;-87
2021/01/14 06:21:55;;;;;;;5.50;1.60;;;1.90;99.90;;;;;;5019171;28;20514;-86
2021/01/14 06:24:25;;;;;;;3.53;1.23;;;1.90;99.90;;;;;;5019265;28;20534;-87
2021/01/14 06:26:53;;;;;;;8.30;2.33;;;1.90;99.90;;;;;;5020098;28;20448;-86
2021/01/14 06:29:25;;;;;;;3.97;1.70;;;1.80;99.90;;;;;;5018865;28;20203;-87
2021/01/14 06:31:51;;;;;;;6.07;2.03;;;1.80;99.90;;;;;;5019031;28;20218;-86
2021/01/14 06:34:23;;;;;;;5.10;1.83;;;1.80;99.90;;;;;;5033644;28;20489;-86
2021/01/14 06:36:50;;;;;;;2.60;1.27;;;1.80;99.90;;;;;;5034912;28;20518;-83
2021/01/14 06:39:18;;;;;;;5.82;2.10;;;1.70;99.90;;;;;;5034198;28;20505;-86
2021/01/14 06:41:46;;;;;;;4.22;1.67;;;1.70;99.90;;;;;;5037600;28;20248;-85
2021/01/14 06:44:15;;;;;;;7.77;1.77;;;1.60;99.90;;;;;;5018688;28;20203;-85
2021/01/14 06:46:42;;;;;;;4.40;1.95;;;1.60;99.90;;;;;;5000281;28;20462;-85
2021/01/14 06:49:13;;;;;;;11.88;1.90;;;1.50;99.90;;;;;;4998053;28;20298;-83
2021/01/14 06:51:57;;;;;;;6.77;1.77;;;1.50;99.90;;;;;;4997669;28;20217;-82
2021/01/14 06:54:26;;;;;;;6.90;2.38;;;1.30;99.90;;;;;;5004506;28;20513;-84
2021/01/14 06:57:14;;;;;;;3.67;1.80;;;1.30;99.90;;;;;;5016211;28;20286;-84
2021/01/14 06:59:41;;;;;;;8.30;2.33;;;1.20;99.90;;;;;;5014560;28;20199;-84
2021/01/14 07:02:47;;;;;;;8.65;2.00;;;1.30;99.90;;;;;;5016296;28;20290;-84
2021/01/14 07:05:34;;;;;;;5.35;2.00;;;1.30;99.90;;;;;;5016450;28;20622;-84
2021/01/14 07:08:34;;;;;;;7.45;1.70;;;1.30;99.90;;;;;;5016853;28;20237;-84
2021/01/14 07:11:06;;;;;;;3.42;2.13;;;1.20;99.90;;;;;;5016169;28;20195;-86
2021/01/14 07:13:34;;;;;;;7.43;2.50;;;1.20;99.90;;;;;;5017251;28;20679;-86
2021/01/14 07:16:01;;;;;;;7.63;2.75;;;1.20;99.90;;;;;;5033909;28;20541;-89
2021/01/14 07:18:30;;;;;;;6.97;1.90;;;1.30;99.90;;;;;;5023615;28;20256;-85
2021/01/14 07:21:02;;;;;;;4.50;2.28;;;1.20;99.90;;;;;;5015958;28;20257;-85
2021/01/14 07:23:30;;;;;;;6.85;2.70;;;1.20;99.90;;;;;;5015409;28;20431;-84
2021/01/14 07:25:59;;;;;;;5.93;2.00;;;1.20;99.90;;;;;;5015404;28;20211;-83
2021/01/14 07:28:25;;;;;;;8.25;2.85;;;1.30;99.90;;;;;;5015183;28;20267;-84
2021/01/14 07:30:52;;;;;;;3.38;1.65;;;1.30;99.90;;;;;;5015002;28;20241;-85
2021/01/14 07:33:27;;;;;;;4.13;1.92;;;1.40;99.90;;;;;;5014118;28;20261;-84
2021/01/14 07:35:55;;;;;;;5.73;2.13;;;1.50;99.90;;;;;;5005264;28;20381;-83
2021/01/14 07:38:22;;;;;;;10.50;2.05;;;1.60;99.90;;;;;;5016051;28;20453;-84
2021/01/14 07:40:54;;;;;;;4.43;2.10;;;1.60;99.90;;;;;;5016428;28;20207;-83
2021/01/14 07:43:32;;;;;;;6.05;2.67;;;1.70;99.90;;;;;;5016594;28;20478;-84
2021/01/14 07:46:29;;;;;;;8.70;3.10;;;1.70;99.90;;;;;;5010659;28;20545;-83
2021/01/14 07:48:55;;;;;;;9.90;2.78;;;1.80;99.90;;;;;;4955612;29;20504;-83
2021/01/14 07:51:50;;;;;;;9.07;2.80;;;1.90;99.90;;;;;;5001742;28;20249;-84
2021/01/14 07:54:20;;;;;;;10.75;4.97;;;1.90;99.90;;;;;;5015423;28;20190;-89
2021/01/14 07:56:51;;;;;;;7.57;2.80;;;2.00;99.90;;;;;;4997237;28;20672;-84
2021/01/14 07:59:28;;;;;;;4.83;2.70;;;2.00;99.90;;;;;;4996581;28;20880;-86
2021/01/14 08:02:04;;;;;;;12.60;2.60;;;2.00;99.90;;;;;;5008847;28;20484;-84
2021/01/14 08:04:44;;;;;;;7.97;2.10;;;2.10;99.90;;;;;;5016833;28;20516;-83
2021/01/14 08:07:21;;;;;;;4.00;1.77;;;2.00;99.90;;;;;;5015994;28;20925;-84
2021/01/14 08:09:48;;;;;;;8.50;2.40;;;2.10;99.90;;;;;;5016386;28;20504;-84
2021/01/14 08:12:28;;;;;;;5.65;2.72;;;2.10;99.90;;;;;;5015404;28;20485;-84
2021/01/14 08:14:55;;;;;;;4.95;1.58;;;2.10;99.90;;;;;;5015818;28;20230;-84
2021/01/14 08:17:24;;;;;;;5.07;1.90;;;2.20;99.90;;;;;;5015194;28;20277;-85
2021/01/14 08:19:51;;;;;;;4.85;2.33;;;2.30;99.90;;;;;;5016242;28;20490;-84
2021/01/14 08:22:18;;;;;;;7.23;2.17;;;2.30;99.90;;;;;;5015083;28;20630;-85
2021/01/14 08:24:52;;;;;;;8.57;2.87;;;2.30;99.90;;;;;;5015968;28;20454;-84
2021/01/14 08:27:34;;;;;;;7.70;2.50;;;2.30;99.90;;;;;;5016534;28;20543;-85
2021/01/14 08:30:05;;;;;;;7.97;3.47;;;2.20;99.90;;;;;;5015998;28;20249;-88
2021/01/14 08:32:37;;;;;;;8.88;3.25;;;2.20;99.90;;;;;;5006918;28;20541;-85
2021/01/14 08:35:06;;;;;;;8.80;3.13;;;2.20;99.90;;;;;;5009486;28;20207;-85
2021/01/14 08:37:36;;;;;;;12.90;4.15;;;2.20;99.90;;;;;;5013207;28;20250;-85
2021/01/14 08:40:08;;;;;;;8.27;2.78;;;2.20;99.90;;;;;;5014654;28;20257;-86
2021/01/14 08:42:39;;;;;;;10.27;4.90;;;2.30;99.90;;;;;;5015583;28;20338;-85
2021/01/14 08:45:12;;;;;;;8.43;3.00;;;2.30;99.90;;;;;;5007536;28;20772;-85
2021/01/14 08:47:59;;;;;;;8.15;3.83;;;2.20;99.90;;;;;;5013907;28;20482;-84
2021/01/14 08:50:37;;;;;;;9.07;4.38;;;2.30;99.90;;;;;;5007817;28;20203;-84
2021/01/14 08:53:04;;;;;;;7.13;3.80;;;2.30;99.90;;;;;;5013199;28;20202;-84
2021/01/14 08:55:31;;;;;;;8.90;4.22;;;2.30;99.90;;;;;;5011829;28;20476;-85
2021/01/14 08:58:00;;;;;;;7.67;2.90;;;2.30;99.90;;;;;;5013701;28;20230;-84
2021/01/14 09:00:27;;;;;;;7.37;3.43;;;2.40;99.90;;;;;;5014316;28;20454;-87
2021/01/14 09:02:54;;;;;;;7.23;3.80;;;2.40;99.90;;;;;;5015023;28;20464;-84
2021/01/14 09:05:20;;;;;;;7.88;4.22;;;2.50;99.90;;;;;;5014033;28;20501;-85
2021/01/14 09:08:05;;;;;;;9.50;4.87;;;2.70;99.90;;;;;;5014552;28;20207;-85
2021/01/14 09:10:56;;;;;;;12.97;4.73;;;2.70;99.90;;;;;;5014064;28;20504;-84
2021/01/14 09:13:24;;;;;;;9.80;4.13;;;2.80;99.90;;;;;;4994713;28;20498;-86
2021/01/14 09:15:53;;;;;;;9.60;5.20;;;2.90;99.90;;;;;;5011304;28;21024;-85
2021/01/14 09:18:30;;;;;;;10.80;5.17;;;3.10;99.90;;;;;;5012428;28;20456;-86
2021/01/14 09:20:56;;;;;;;8.50;3.83;;;3.30;99.90;;;;;;4999163;28;20446;-84
2021/01/14 09:23:24;;;;;;;6.10;4.00;;;3.30;99.90;;;;;;5013607;28;20482;-85
2021/01/14 09:25:53;;;;;;;7.97;4.00;;;3.50;99.90;;;;;;5013370;28;20493;-86
2021/01/14 09:28:24;;;;;;;8.23;4.00;;;3.60;99.90;;;;;;5013163;28;20462;-87
2021/01/14 09:30:58;;;;;;;6.47;4.00;;;3.70;99.90;;;;;;5012777;28;20455;-84
2021/01/14 09:33:32;;;;;;;9.50;3.93;;;3.70;99.90;;;;;;5003458;28;20540;-82
2021/01/14 09:36:04;;;;;;;7.30;4.20;;;3.70;99.90;;;;;;5014932;28;20588;-85
2021/01/14 09:38:38;;;;;;;4.23;3.13;;;3.70;99.90;;;;;;4997096;28;20525;-84
2021/01/14 09:41:06;;;;;;;7.00;2.90;;;3.90;99.90;;;;;;5013256;28;20473;-82
2021/01/14 09:43:32;;;;;;;7.13;3.37;;;3.80;99.90;;;;;;5004675;28;20489;-81
2021/01/14 09:46:00;;;;;;;5.70;3.07;;;3.90;99.90;;;;;;5013919;28;20545;-82
2021/01/14 09:48:32;;;;;;;6.27;3.47;;;4.00;99.90;;;;;;5013875;28;20923;-82
2021/01/14 09:50:59;;;;;;;5.70;2.90;;;4.20;99.90;;;;;;5017834;28;20495;-82
2021/01/14 09:53:25;;;;;;;8.47;3.70;;;4.30;99.90;;;;;;5006396;28;20454;-82
2021/01/14 09:55:57;;;;;;;4.47;2.87;;;4.50;99.90;;;;;;4986142;28;20454;-83
2021/01/14 09:58:27;;;;;;;6.23;3.37;;;4.60;99.90;;;;;;5000888;28;20591;-83
2021/01/14 10:00:53;;;;;;;7.90;3.50;;;4.60;99.90;;;;;;5003245;28;21066;-88
2021/01/14 10:03:22;;;;;;;5.07;3.50;;;4.70;99.90;;;;;;5000473;28;20561;-83
2021/01/14 10:05:50;;;;;;;6.73;2.90;;;4.70;99.90;;;;;;5001421;28;20783;-83
2021/01/14 10:08:22;;;;;;;4.30;2.77;;;4.90;99.90;;;;;;5005373;28;20448;-84
2021/01/14 10:10:49;;;;;;;10.80;2.67;;;5.10;99.90;;;;;;4997334;28;20442;-82
2021/01/14 10:13:16;;;;;;;7.33;2.80;;;4.90;99.90;;;;;;4996746;28;20531;-82
2021/01/14 10:15:43;;;;;;;6.00;3.00;;;4.90;99.90;;;;;;5012181;28;20480;-83
2021/01/14 10:18:23;;;;;;;6.13;2.50;;;4.80;99.90;;;;;;5010288;28;20941;-81
2021/01/14 10:21:07;;;;;;;7.03;3.17;;;4.80;99.90;;;;;;5010601;28;20467;-82
2021/01/14 10:23:34;;;;;;;8.20;2.40;;;4.80;99.90;;;;;;4999677;28;20442;-82
2021/01/14 10:26:01;;;;;;;6.20;2.70;;;5.00;99.90;;;;;;4997748;28;20506;-81
2021/01/14 10:28:27;;;;;;;6.20;3.23;;;5.00;99.90;;;;;;5005551;28;20456;-82
2021/01/14 10:30:54;;;;;;;7.23;2.80;;;5.10;99.90;;;;;;5011134;28;20620;-86
2021/01/14 10:33:24;;;;;;;9.83;3.33;;;5.20;99.90;;;;;;5003937;28;20594;-86
2021/01/14 10:35:55;;;;;;;4.40;2.53;;;5.20;99.90;;;;;;5004418;28;20563;-83
2021/01/14 10:38:21;;;;;;;6.10;2.77;;;5.20;99.90;;;;;;4998805;28;20453;-84
2021/01/14 10:40:51;;;;;;;4.97;2.57;;;5.20;99.90;;;;;;4998080;28;20536;-84
2021/01/14 10:43:29;;;;;;;7.07;3.37;;;5.40;99.90;;;;;;5013522;28;20817;-83
2021/01/14 10:45:56;;;;;;;6.07;3.10;;;5.30;99.90;;;;;;5029203;28;20468;-82
2021/01/14 10:48:50;;;;;;;7.17;3.20;;;5.50;99.90;;;;;;5019544;28;20452;-84
2021/01/14 10:51:32;;;;;;;6.47;3.20;;;5.50;99.90;;;;;;5016155;28;20461;-82
2021/01/14 10:53:58;;;;;;;5.90;2.97;;;5.50;99.90;;;;;;5018777;28;20456;-84
2021/01/14 10:56:24;;;;;;;5.30;2.80;;;5.50;99.90;;;;;;5015885;28;20491;-84
2021/01/14 10:58:57;;;;;;;7.70;3.30;;;5.60;99.90;;;;;;5015476;28;20444;-86
2021/01/14 11:01:23;;;;;;;5.27;2.57;;;5.80;99.90;;;;;;5015033;28;20985;-85
2021/01/14 11:03:51;;;;;;;9.53;2.57;;;5.90;99.90;;;;;;5016393;28;20529;-84
2021/01/14 11:06:31;;;;;;;9.13;3.27;;;5.80;99.90;;;;;;5018531;28;20503;-84
2021/01/14 11:09:03;;;;;;;7.60;3.00;;;5.80;99.90;;;;;;5016932;28;20974;-83
2021/01/14 11:11:29;;;;;;;5.50;3.13;;;5.80;99.90;;;;;;5016824;28;20495;-83
2021/01/14 11:13:56;;;;;;;10.50;3.47;;;5.80;99.90;;;;;;5015609;28;20464;-85
2021/01/14 11:16:25;;;;;;;5.47;2.97;;;5.90;99.90;;;;;;5015715;28;20488;-86
2021/01/14 11:18:54;;;;;;;5.60;3.47;;;5.90;99.90;;;;;;5015460;28;20458;-84
2021/01/14 11:21:28;;;;;;;9.00;4.73;;;6.00;99.90;;;;;;5015111;28;20456;-87
2021/01/14 11:23:55;;;;;;;10.30;3.60;;;5.90;99.90;;;;;;5021660;28;20454;-85
2021/01/14 11:26:21;;;;;;;11.50;4.20;;;5.90;99.90;;;;;;5020687;28;20456;-88
2021/01/14 11:28:49;;;;;;;6.87;4.00;;;6.10;99.90;;;;;;5014936;28;20450;-83
2021/01/14 11:31:17;;;;;;;8.77;3.57;;;6.30;99.90;;;;;;5013745;28;20516;-85
2021/01/14 11:33:44;;;;;;;4.77;3.63;;;6.80;99.90;;;;;;5013534;28;20536;-84
2021/01/14 11:36:12;;;;;;;5.67;3.70;;;6.50;99.90;;;;;;5011642;28;20581;-83
2021/01/14 11:38:40;;;;;;;6.47;3.23;;;6.00;99.90;;;;;;5008714;28;20996;-84
2021/01/14 11:41:07;;;;;;;5.27;2.80;;;5.70;99.90;;;;;;5012265;28;20530;-84
2021/01/14 11:43:35;;;;;;;7.20;3.50;;;5.60;99.90;;;;;;5017336;28;20568;-84
2021/01/14 11:46:01;;;;;;;5.83;3.20;;;5.20;99.90;;;;;;5015031;28;20598;-84
2021/01/14 11:48:28;;;;;;;5.80;3.23;;;5.10;99.90;;;;;;5016613;28;20975;-84
2021/01/14 11:50:54;;;;;;;5.23;3.20;;;5.20;99.90;;;;;;5025396;28;20536;-84
2021/01/14 11:53:21;;;;;;;3.80;2.37;;;5.20;99.90;;;;;;5025212;28;20893;-86
2021/01/14 11:55:48;;;;;;;7.33;2.57;;;5.60;99.90;;;;;;5015779;28;20477;-81
2021/01/14 11:58:14;;;;;;;5.13;3.43;;;6.00;99.90;;;;;;5029322;28;20500;-83
2021/01/14 12:00:40;;;;;;;10.90;4.40;;;6.10;99.90;;;;;;5041116;28;20465;-84
2021/01/14 12:03:07;;;;;;;6.67;3.67;;;6.40;99.90;;;;;;5021624;28;20466;-82
2021/01/14 12:05:33;;;;;;;6.63;3.10;;;7.30;99.90;;;;;;5020551;28;20537;-82
2021/01/14 12:08:00;;;;;;;8.70;3.13;;;7.90;99.90;;;;;;5025112;28;20532;-82
2021/01/14 12:10:27;;;;;;;9.53;3.77;;;7.70;99.90;;;;;;5030363;28;20454;-82
2021/01/14 12:12:54;;;;;;;5.37;3.33;;;7.60;99.90;;;;;;5019000;28;20990;-82
2021/01/14 12:15:21;;;;;;;6.43;3.30;;;7.00;99.90;;;;;;5029606;28;20524;-89
2021/01/14 12:17:47;;;;;;;7.93;3.27;;;8.10;99.90;;;;;;5019689;28;20563;-82
2021/01/14 12:20:14;;;;;;;6.03;3.27;;;7.90;99.90;;;;;;5013935;28;20453;-83
2021/01/14 12:22:42;;;;;;;5.20;2.90;;;7.80;99.90;;;;;;5021902;28;20479;-83
2021/01/14 12:25:10;;;;;;;7.67;2.90;;;7.90;99.90;;;;;;5022492;28;20450;-83
2021/01/14 12:27:37;;;;;;;5.77;2.53;;;8.00;99.90;;;;;;5019772;28;20536;-84
2021/01/14 12:30:05;;;;;;;8.10;2.93;;;7.70;99.90;;;;;;5017615;28;20464;-83
2021/01/14 12:32:32;;;;;;;4.43;2.77;;;7.00;99.90;;;;;;5013523;28;20471;-82
2021/01/14 12:34:59;;;;;;;8.00;3.40;;;6.40;99.90;;;;;;5018476;28;20512;-84
2021/01/14 12:37:25;;;;;;;5.83;2.70;;;6.10;99.90;;;;;;5023250;28;20534;-82
2021/01/14 12:39:51;;;;;;;8.07;3.10;;;5.80;99.90;;;;;;5022242;28;21085;-82
2021/01/14 12:42:18;;;;;;;5.23;2.93;;;5.40;99.90;;;;;;5024809;28;20556;-83
2021/01/14 12:44:45;;;;;;;7.53;3.47;;;5.20;99.90;;;;;;5013552;28;20464;-82
2021/01/14 12:47:12;;;;;;;5.57;2.70;;;5.00;99.90;;;;;;5017220;28;20556;-82
2021/01/14 12:49:38;;;;;;;9.33;3.40;;;5.00;99.90;;;;;;5013946;28;20544;-83
2021/01/14 12:52:05;;;;;;;5.00;3.20;;;4.90;99.90;;;;;;5014030;28;20536;-83
2021/01/14 12:54:32;;;;;;;8.43;3.17;;;4.90;99.90;;;;;;5014869;28;20889;-83
2021/01/14 12:56:58;;;;;;;5.13;3.23;;;4.80;99.90;;;;;;5014177;28;20559;-83
2021/01/14 12:59:24;;;;;;;6.50;4.07;;;4.60;99.90;;;;;;5013580;28;20796;-83
2021/01/14 13:01:52;;;;;;;10.33;4.00;;;4.60;99.90;;;;;;5013900;28;20461;-82
2021/01/14 13:04:18;;;;;;;7.10;3.40;;;4.30;99.90;;;;;;5013823;28;20488;-82
2021/01/14 13:06:44;;;;;;;6.60;3.30;;;4.40;99.90;;;;;;5014073;28;20501;-82